Terminal Aerodrome Forecast
Issued by NWS

Home | Current Version | Previous Version | Text Only | Print | Product List | Glossary On
Versions: 1 2 3 4 5 6 7 8 9 10 11 12 13 14 15 16 17 18
000
FTUS46 KMTR 212300
TAFSTS
TAF
KSTS 212334Z 2200/2224 19008KT P6SM SKC
     FM220700 00000KT P6SM SKC
     FM221100 00000KT P6SM OVC008
     FM221700 VRB04KT P6SM SKC
     FM222100 19012KT P6SM SKC=

USA.gov is the U.S. government's official web portal to all federal, state and local government web resources and services.